Time;durP1;ratioP1;P1;durP2;ratioP2;P2;SDS_P1;SDS_P2;PMS_P1;PMS_P2;Temp;Humidity;BMP_temperature;BMP_pressure;BME280_temperature;BME280_humidity;BME280_pressure;Samples;Min_cycle;Max_cycle;Signal;HPM_P1;HPM_P2
2021/01/21 00:00:42;;;;;;;387.70;239.27;;;179.60;1740.80;;;;;;4917973;29;20112;-72
2021/01/21 00:03:08;;;;;;;317.60;188.77;;;179.90;1689.60;;;;;;4918048;29;20024;-71
2021/01/21 00:05:33;;;;;;;294.98;181.15;;;179.80;1715.20;;;;;;4917853;29;20028;-74
2021/01/21 00:07:59;;;;;;;295.05;175.45;;;179.90;1689.60;;;;;;4917991;29;20494;-74
2021/01/21 00:10:24;;;;;;;296.65;176.10;;;180.00;1664.00;;;;;;4917781;29;20527;-74
2021/01/21 00:12:51;;;;;;;305.58;181.23;;;179.90;1689.60;;;;;;4917952;29;20554;-73
2021/01/21 00:15:17;;;;;;;293.00;172.82;;;180.10;1664.00;;;;;;4917755;29;20016;-73
2021/01/21 00:17:43;;;;;;;297.52;180.00;;;179.80;1689.60;;;;;;4917756;29;20072;-74
2021/01/21 00:20:10;;;;;;;293.23;175.27;;;179.90;1689.60;;;;;;4916687;29;20139;-74
2021/01/21 00:22:35;;;;;;;318.63;188.35;;;180.00;1664.00;;;;;;4917664;29;20107;-74
2021/01/21 00:25:01;;;;;;;320.58;194.18;;;180.10;1664.00;;;;;;4917330;29;20160;-73
2021/01/21 00:27:27;;;;;;;341.13;210.95;;;204.80;1638.40;;;;;;4917558;29;20092;-73
2021/01/21 00:29:53;;;;;;;353.40;217.18;;;180.10;1664.00;;;;;;4917436;29;20024;-74
2021/01/21 00:32:18;;;;;;;349.17;218.07;;;180.00;1715.20;;;;;;4917599;29;20042;-74
2021/01/21 00:34:44;;;;;;;319.73;196.90;;;180.10;1689.60;;;;;;4917517;29;20025;-74
2021/01/21 00:37:09;;;;;;;313.50;195.73;;;204.80;1664.00;;;;;;4917368;29;20044;-74
2021/01/21 00:39:35;;;;;;;358.52;223.00;;;179.90;1689.60;;;;;;4917364;29;20020;-73
2021/01/21 00:42:01;;;;;;;305.08;192.65;;;179.80;1689.60;;;;;;4917683;29;20543;-75
2021/01/21 00:44:26;;;;;;;306.30;188.85;;;179.80;1689.60;;;;;;4917488;29;20032;-73
2021/01/21 00:46:52;;;;;;;274.08;171.30;;;179.90;1689.60;;;;;;4917244;29;20036;-74
2021/01/21 00:49:18;;;;;;;264.77;163.63;;;179.60;1715.20;;;;;;4917372;29;20028;-74
2021/01/21 00:51:43;;;;;;;258.42;160.52;;;179.70;1715.20;;;;;;4916007;29;20454;-74
2021/01/21 00:54:09;;;;;;;318.48;182.85;;;179.70;1689.60;;;;;;4917316;29;20052;-73
2021/01/21 00:56:35;;;;;;;262.38;160.55;;;179.60;1689.60;;;;;;4915710;29;20056;-72
2021/01/21 00:59:01;;;;;;;238.60;147.35;;;179.70;1689.60;;;;;;4917324;29;20028;-73
2021/01/21 01:01:26;;;;;;;220.73;139.15;;;179.60;1689.60;;;;;;4917050;29;20496;-73
2021/01/21 01:03:52;;;;;;;233.25;145.40;;;179.60;1689.60;;;;;;4917444;29;20024;-72
2021/01/21 01:06:18;;;;;;;225.45;139.27;;;179.40;1715.20;;;;;;4917215;29;20020;-72
2021/01/21 01:08:43;;;;;;;225.20;140.13;;;179.50;1715.20;;;;;;4917098;29;20404;-72
2021/01/21 01:11:10;;;;;;;246.95;149.02;;;154.50;1740.80;;;;;;4916941;29;20052;-72
2021/01/21 01:13:35;;;;;;;308.00;165.40;;;179.30;1740.80;;;;;;4917341;29;20029;-73
2021/01/21 01:16:01;;;;;;;227.55;138.82;;;179.50;1740.80;;;;;;4916980;29;20035;-72
2021/01/21 01:18:27;;;;;;;193.23;122.72;;;179.40;1766.40;;;;;;4916983;29;20043;-74
2021/01/21 01:20:52;;;;;;;234.57;127.93;;;154.50;1766.40;;;;;;4916973;29;20032;-74
2021/01/21 01:23:18;;;;;;;199.77;122.38;;;179.40;1740.80;;;;;;4916996;29;20080;-75
2021/01/21 01:25:44;;;;;;;232.25;137.75;;;154.40;1766.40;;;;;;4916802;29;20435;-75
2021/01/21 01:28:09;;;;;;;202.93;124.82;;;179.30;1740.80;;;;;;4916826;29;20051;-73
2021/01/21 01:30:35;;;;;;;184.23;115.72;;;179.40;1740.80;;;;;;4917012;29;20472;-75
2021/01/21 01:33:01;;;;;;;190.07;117.07;;;179.40;1740.80;;;;;;4917066;29;20111;-75
2021/01/21 01:35:26;;;;;;;189.95;116.28;;;179.50;1740.80;;;;;;4916930;29;20032;-75
2021/01/21 01:37:52;;;;;;;183.25;115.35;;;179.50;1740.80;;;;;;4916803;29;20032;-75
2021/01/21 01:40:18;;;;;;;202.45;122.20;;;179.40;1740.80;;;;;;4915469;29;20032;-75
2021/01/21 01:42:44;;;;;;;220.85;128.63;;;179.40;1740.80;;;;;;4916795;29;20028;-75
2021/01/21 01:45:11;;;;;;;166.93;107.25;;;179.50;1715.20;;;;;;4916926;29;20111;-73
2021/01/21 01:47:39;;;;;;;106.82;61.70;;;179.40;1740.80;;;;;;4916563;29;20156;-75
2021/01/21 01:50:06;;;;;;;125.82;79.68;;;179.30;1766.40;;;;;;4917268;29;20028;-74
2021/01/21 01:52:32;;;;;;;120.63;74.63;;;179.40;1740.80;;;;;;4920336;29;20394;-76
2021/01/21 01:54:59;;;;;;;177.20;106.57;;;179.50;1740.80;;;;;;4918773;29;20048;-75
2021/01/21 01:57:27;;;;;;;145.02;91.57;;;179.70;1689.60;;;;;;4934648;29;20477;-75
2021/01/21 01:59:57;;;;;;;128.52;81.90;;;179.90;1689.60;;;;;;4920106;29;20032;-74
2021/01/21 02:02:23;;;;;;;140.43;88.28;;;180.00;1689.60;;;;;;4920365;29;20024;-75
2021/01/21 02:04:49;;;;;;;146.02;92.10;;;179.80;1715.20;;;;;;4920078;29;20020;-75
2021/01/21 02:07:14;;;;;;;157.95;98.20;;;179.90;1715.20;;;;;;4920032;29;20053;-76
2021/01/21 02:09:41;;;;;;;182.45;113.95;;;179.90;1715.20;;;;;;4918592;29;20036;-73
2021/01/21 02:12:40;;;;;;;162.25;102.55;;;179.40;1740.80;;;;;;4920130;29;20115;-70
2021/01/21 02:15:39;;;;;;;161.50;101.30;;;179.50;1715.20;;;;;;4920065;29;20390;-74
2021/01/21 02:18:40;;;;;;;130.60;78.53;;;179.70;1715.20;;;;;;4919738;29;20039;-72
2021/01/21 02:21:28;;;;;;;134.63;80.43;;;179.50;1715.20;;;;;;4919969;29;20398;-72
2021/01/21 02:23:59;;;;;;;188.32;115.47;;;179.20;1740.80;;;;;;4919694;29;20028;-74
2021/01/21 02:26:36;;;;;;;124.45;69.28;;;179.30;1740.80;;;;;;4919776;29;20028;-73
2021/01/21 02:29:25;;;;;;;112.93;65.95;;;154.30;1817.60;;;;;;4919631;29;20043;-72
2021/01/21 02:32:02;;;;;;;152.43;83.68;;;154.40;1792.00;;;;;;4936486;29;20036;-73
2021/01/21 02:35:02;;;;;;;120.55;70.90;;;179.40;1740.80;;;;;;4936639;29;20071;-74
2021/01/21 02:37:30;;;;;;;126.85;74.63;;;179.60;1740.80;;;;;;4936468;29;20086;-74
2021/01/21 02:39:59;;;;;;;143.40;82.57;;;179.50;1715.20;;;;;;4936595;29;20058;-74
2021/01/21 02:42:26;;;;;;;158.73;84.28;;;179.70;1689.60;;;;;;4936493;29;20114;-73
2021/01/21 02:44:51;;;;;;;196.90;105.55;;;179.40;1740.80;;;;;;4936357;29;20032;-71
2021/01/21 02:47:19;;;;;;;131.32;76.70;;;179.20;1766.40;;;;;;4936203;29;20524;-72
2021/01/21 02:49:48;;;;;;;154.93;87.50;;;154.10;1817.60;;;;;;4936375;29;20040;-71
2021/01/21 02:52:40;;;;;;;186.32;106.78;;;154.50;1792.00;;;;;;4936252;29;20039;-71
2021/01/21 02:55:40;;;;;;;150.68;88.07;;;179.50;1740.80;;;;;;4935900;29;20176;-71
2021/01/21 02:58:20;;;;;;;159.93;91.32;;;179.60;1715.20;;;;;;4917115;29;20499;-71
2021/01/21 03:00:50;;;;;;;200.18;111.03;;;179.60;1715.20;;;;;;4916982;29;20107;-70
2021/01/21 03:03:21;;;;;;;137.57;80.80;;;179.40;1766.40;;;;;;4916237;29;20036;-71
2021/01/21 03:05:52;;;;;;;117.63;65.68;;;179.40;1740.80;;;;;;4917276;29;20072;-71
2021/01/21 03:08:18;;;;;;;121.03;71.10;;;179.50;1740.80;;;;;;4911801;29;20039;-72
2021/01/21 03:10:44;;;;;;;123.95;73.57;;;179.60;1715.20;;;;;;4898081;29;20140;-72
2021/01/21 03:13:10;;;;;;;91.35;53.75;;;179.40;1740.80;;;;;;4898016;29;20618;-72
2021/01/21 03:15:35;;;;;;;114.82;67.13;;;179.50;1715.20;;;;;;4898050;29;20373;-72
2021/01/21 03:18:01;;;;;;;130.27;74.15;;;179.60;1715.20;;;;;;4897959;29;20119;-71
2021/01/21 03:20:27;;;;;;;118.88;67.47;;;179.40;1740.80;;;;;;4882941;29;20402;-72
2021/01/21 03:22:53;;;;;;;81.50;45.90;;;179.50;1715.20;;;;;;4898073;29;20041;-72
2021/01/21 03:25:18;;;;;;;65.72;39.03;;;179.20;1766.40;;;;;;4897762;29;20112;-72
2021/01/21 03:27:44;;;;;;;91.45;55.13;;;154.50;1766.40;;;;;;4897752;29;20082;-70
2021/01/21 03:30:10;;;;;;;130.65;75.78;;;179.40;1740.80;;;;;;4897703;29;20032;-70
2021/01/21 03:32:37;;;;;;;78.40;45.85;;;179.40;1740.80;;;;;;4897550;29;20112;-71
2021/01/21 03:35:04;;;;;;;81.90;50.47;;;154.20;1817.60;;;;;;4909645;29;20043;-70
2021/01/21 03:37:30;;;;;;;79.45;48.17;;;154.20;1792.00;;;;;;4918422;29;20420;-71
2021/01/21 03:39:56;;;;;;;305.15;178.73;;;154.40;1792.00;;;;;;4918537;29;20028;-71
2021/01/21 03:42:21;;;;;;;118.53;73.10;;;179.20;1766.40;;;;;;4918233;29;20051;-71
2021/01/21 03:44:47;;;;;;;101.00;61.13;;;179.30;1766.40;;;;;;4917176;29;20475;-71
2021/01/21 03:47:13;;;;;;;174.27;108.95;;;179.40;1766.40;;;;;;4918296;29;20506;-71
2021/01/21 03:49:38;;;;;;;107.05;64.93;;;179.30;1740.80;;;;;;4918171;29;20083;-71
2021/01/21 03:52:04;;;;;;;110.57;68.00;;;179.50;1740.80;;;;;;4918270;29;20047;-71
2021/01/21 03:54:30;;;;;;;142.80;90.20;;;179.70;1715.20;;;;;;4918071;29;20025;-70
2021/01/21 03:56:55;;;;;;;142.10;91.38;;;179.70;1715.20;;;;;;4917998;29;20079;-71
2021/01/21 03:59:21;;;;;;;126.57;82.38;;;179.70;1715.20;;;;;;4918043;29;20032;-70
2021/01/21 04:01:48;;;;;;;128.00;81.35;;;179.50;1740.80;;;;;;4918183;29;20092;-71
2021/01/21 04:04:13;;;;;;;109.57;68.70;;;179.70;1715.20;;;;;;4917964;29;20031;-71
2021/01/21 04:06:39;;;;;;;84.78;53.20;;;179.70;1715.20;;;;;;4918086;29;20024;-70
2021/01/21 04:09:05;;;;;;;81.28;50.90;;;179.70;1689.60;;;;;;4917932;29;20025;-70
2021/01/21 04:11:31;;;;;;;106.70;64.65;;;179.50;1766.40;;;;;;4917992;29;20078;-70
2021/01/21 04:13:57;;;;;;;87.38;51.50;;;154.20;1843.20;;;;;;4917270;29;20028;-70
2021/01/21 04:16:22;;;;;;;72.80;43.58;;;153.90;1868.80;;;;;;4917643;29;20067;-70
2021/01/21 04:18:48;;;;;;;70.70;42.40;;;154.10;1843.20;;;;;;4917759;29;20032;-70
2021/01/21 04:21:14;;;;;;;71.25;44.65;;;153.90;1868.80;;;;;;4917726;29;20360;-72
2021/01/21 04:23:39;;;;;;;80.18;50.28;;;154.10;1843.20;;;;;;4917848;29;20063;-72
2021/01/21 04:26:05;;;;;;;80.72;49.42;;;154.40;1792.00;;;;;;4917480;29;20027;-71
2021/01/21 04:28:31;;;;;;;75.95;48.67;;;179.20;1766.40;;;;;;4917482;29;20032;-71
2021/01/21 04:30:57;;;;;;;79.90;48.85;;;179.40;1740.80;;;;;;4932124;29;20032;-72
2021/01/21 04:33:23;;;;;;;71.47;48.42;;;;;;;;;;4917486;29;20382;-72
2021/01/21 04:35:49;;;;;;;83.35;49.47;;;179.60;1689.60;;;;;;4917585;29;20037;-71
2021/01/21 04:38:15;;;;;;;84.03;51.17;;;179.40;1715.20;;;;;;4917417;29;20072;-71
2021/01/21 04:40:40;;;;;;;80.13;51.60;;;179.50;1715.20;;;;;;4917425;29;20073;-71
2021/01/21 04:43:06;;;;;;;83.10;52.38;;;179.60;1715.20;;;;;;4917376;29;20032;-71
2021/01/21 04:45:32;;;;;;;73.10;45.50;;;179.30;1740.80;;;;;;4917176;29;20111;-72
2021/01/21 04:47:59;;;;;;;75.63;46.50;;;179.20;1766.40;;;;;;4917403;29;20542;-71
2021/01/21 04:50:27;;;;;;;85.50;49.95;;;179.20;1766.40;;;;;;4917373;29;20035;-70
2021/01/21 04:52:55;;;;;;;73.07;49.05;;;154.00;1868.80;;;;;;4917234;29;20035;-71
2021/01/21 04:55:25;;;;;;;62.78;41.03;;;154.20;1817.60;;;;;;4916989;29;20182;-71
2021/01/21 04:58:12;;;;;;;82.85;54.70;;;153.70;1920.00;;;;;;4917236;29;20058;-72
2021/01/21 05:00:39;;;;;;;99.40;68.10;;;154.00;1843.20;;;;;;4917120;29;20031;-72
2021/01/21 05:03:05;;;;;;;69.85;43.30;;;154.40;1843.20;;;;;;4917168;29;20055;-72
2021/01/21 05:05:31;;;;;;;83.80;53.38;;;153.80;1894.40;;;;;;4916941;29;20028;-70
2021/01/21 05:07:57;;;;;;;72.80;45.88;;;154.00;1894.40;;;;;;4917138;29;20033;-69
2021/01/21 05:10:23;;;;;;;90.55;58.08;;;153.80;1894.40;;;;;;4916859;29;20059;-71
2021/01/21 05:12:49;;;;;;;79.10;51.22;;;154.10;1843.20;;;;;;4916197;29;20027;-72
2021/01/21 05:15:14;;;;;;;87.25;55.88;;;154.30;1843.20;;;;;;4916552;29;20360;-71
2021/01/21 05:17:42;;;;;;;82.40;50.45;;;154.30;1817.60;;;;;;4916728;29;20107;-72
2021/01/21 05:20:08;;;;;;;100.80;58.58;;;154.10;1843.20;;;;;;4916587;29;20024;-70
2021/01/21 05:22:38;;;;;;;119.57;71.75;;;154.20;1817.60;;;;;;4916392;29;20055;-65
2021/01/21 05:25:04;;;;;;;90.63;56.45;;;154.30;1817.60;;;;;;4916965;29;20032;-70
2021/01/21 05:27:30;;;;;;;94.57;64.43;;;154.50;1817.60;;;;;;4920337;29;20546;-72
2021/01/21 05:30:00;;;;;;;99.50;64.53;;;179.20;1817.60;;;;;;4920964;29;20036;-72
2021/01/21 05:32:26;;;;;;;106.43;66.63;;;154.50;1843.20;;;;;;4920540;29;20036;-72
2021/01/21 05:34:53;;;;;;;127.38;86.03;;;179.30;1766.40;;;;;;4920573;29;20072;-71
2021/01/21 05:37:19;;;;;;;135.27;88.15;;;154.50;1792.00;;;;;;4920608;29;20062;-72
2021/01/21 05:39:45;;;;;;;157.52;97.07;;;154.50;1817.60;;;;;;4920502;29;20061;-72
2021/01/21 05:42:12;;;;;;;172.23;107.90;;;179.20;1817.60;;;;;;4920229;29;20036;-71
2021/01/21 05:44:39;;;;;;;182.73;109.25;;;154.30;1817.60;;;;;;4920637;29;20020;-72
2021/01/21 05:47:07;;;;;;;141.73;90.18;;;154.00;1868.80;;;;;;4920400;29;20024;-71
2021/01/21 05:49:33;;;;;;;123.07;76.20;;;154.10;1868.80;;;;;;4920512;29;20024;-71
2021/01/21 05:52:00;;;;;;;147.88;94.40;;;154.20;1868.80;;;;;;4920317;29;20115;-72
2021/01/21 05:54:27;;;;;;;141.27;92.63;;;154.00;1868.80;;;;;;4920214;29;20111;-71
2021/01/21 05:57:01;;;;;;;176.55;113.10;;;154.30;1843.20;;;;;;4919926;29;20062;-72
2021/01/21 05:59:28;;;;;;;183.93;117.65;;;154.50;1792.00;;;;;;4920322;29;20048;-72
2021/01/21 06:01:54;;;;;;;147.32;99.13;;;179.20;1792.00;;;;;;4920304;29;20024;-72
2021/01/21 06:04:26;;;;;;;159.32;104.68;;;154.30;1843.20;;;;;;4920230;29;20079;-72
2021/01/21 06:06:55;;;;;;;163.27;102.53;;;154.00;1868.80;;;;;;4920010;29;20519;-72
2021/01/21 06:09:31;;;;;;;173.02;115.25;;;154.00;2227.20;;;;;;4920078;29;20028;-71
2021/01/21 06:12:01;;;;;;;184.23;128.68;;;154.30;1817.60;;;;;;4920180;29;20032;-73
2021/01/21 06:14:27;;;;;;;188.18;131.65;;;154.50;1792.00;;;;;;4918761;29;20036;-71
2021/01/21 06:16:53;;;;;;;220.45;147.35;;;154.50;1792.00;;;;;;4919648;29;20035;-72
2021/01/21 06:19:19;;;;;;;215.20;148.02;;;179.20;1792.00;;;;;;4919887;29;20115;-72
2021/01/21 06:21:54;;;;;;;193.23;127.50;;;154.50;1792.00;;;;;;4918697;29;20020;-72
2021/01/21 06:24:27;;;;;;;183.93;124.90;;;154.30;1817.60;;;;;;4919723;29;20028;-72
2021/01/21 06:26:54;;;;;;;214.23;142.27;;;154.30;1843.20;;;;;;4918451;29;20036;-73
2021/01/21 06:29:21;;;;;;;289.05;184.23;;;154.40;1817.60;;;;;;4918504;29;20028;-72
2021/01/21 06:31:49;;;;;;;316.85;207.85;;;154.50;1817.60;;;;;;4919769;29;20028;-71
2021/01/21 06:34:23;;;;;;;339.15;218.63;;;179.30;1792.00;;;;;;4919648;29;20036;-72
2021/01/21 06:37:02;;;;;;;434.23;297.08;;;179.40;1792.00;;;;;;4919240;29;20462;-72
2021/01/21 06:39:43;;;;;;;469.05;341.23;;;154.20;1843.20;;;;;;4919399;29;20032;-72
2021/01/21 06:42:16;;;;;;;387.60;264.85;;;154.00;1868.80;;;;;;4919396;29;20099;-72
2021/01/21 06:44:43;;;;;;;363.88;250.50;;;154.40;1843.20;;;;;;4919399;29;20054;-71
2021/01/21 06:47:09;;;;;;;315.65;214.07;;;154.50;1817.60;;;;;;4919163;29;20024;-71
2021/01/21 06:49:36;;;;;;;299.73;201.40;;;154.50;1817.60;;;;;;4919484;29;20038;-72
2021/01/21 06:52:04;;;;;;;311.70;214.02;;;179.40;1792.00;;;;;;4919345;29;20024;-72
2021/01/21 06:54:31;;;;;;;311.95;222.82;;;179.60;1817.60;;;;;;4919238;29;20036;-72
2021/01/21 06:56:56;;;;;;;296.50;207.77;;;154.30;1843.20;;;;;;4919182;29;20044;-71
2021/01/21 06:59:51;;;;;;;288.27;202.18;;;179.20;1843.20;;;;;;4919354;29;20090;-72
2021/01/21 07:02:49;;;;;;;310.38;215.35;;;179.30;1843.20;;;;;;4919128;29;20158;-72
2021/01/21 07:05:21;;;;;;;365.42;248.82;;;179.40;1843.20;;;;;;4919179;29;20016;-72
2021/01/21 07:08:02;;;;;;;378.48;259.35;;;179.70;1792.00;;;;;;4919135;29;20032;-72
2021/01/21 07:10:45;;;;;;;406.60;286.17;;;179.50;1792.00;;;;;;4919081;29;20020;-72
2021/01/21 07:13:17;;;;;;;418.63;281.33;;;179.80;1766.40;;;;;;4919216;29;20481;-72
2021/01/21 07:15:43;;;;;;;462.83;339.38;;;154.50;1843.20;;;;;;4918988;29;20039;-72
2021/01/21 07:18:19;;;;;;;408.98;281.35;;;179.30;1817.60;;;;;;4918878;29;20032;-72
2021/01/21 07:21:00;;;;;;;406.45;280.23;;;154.40;1868.80;;;;;;4918808;29;20099;-70
2021/01/21 07:23:45;;;;;;;353.17;236.27;;;179.50;1817.60;;;;;;4918700;29;20479;-72
2021/01/21 07:26:36;;;;;;;369.77;253.02;;;179.50;1817.60;;;;;;4919055;29;20033;-72
2021/01/21 07:29:15;;;;;;;402.17;268.25;;;179.40;1817.60;;;;;;4918748;29;20024;-72
2021/01/21 07:31:56;;;;;;;402.70;279.15;;;179.40;1843.20;;;;;;4918644;29;20032;-72
2021/01/21 07:34:21;;;;;;;452.20;324.10;;;179.80;1792.00;;;;;;4918431;29;20403;-72
2021/01/21 07:37:06;;;;;;;457.48;337.20;;;179.80;1766.40;;;;;;4918627;29;20060;-72
2021/01/21 07:39:59;;;;;;;471.38;348.00;;;180.10;1740.80;;;;;;4918576;29;20067;-72
2021/01/21 07:42:34;;;;;;;514.83;380.38;;;180.10;1766.40;;;;;;4918433;29;20048;-72
2021/01/21 07:45:18;;;;;;;504.05;373.23;;;205.00;1715.20;;;;;;4918346;29;20032;-73
2021/01/21 07:47:48;;;;;;;459.92;338.77;;;205.20;1715.20;;;;;;4917610;29;20055;-72
2021/01/21 07:50:14;;;;;;;448.10;331.80;;;205.60;1664.00;;;;;;4918090;29;20439;-72
2021/01/21 07:52:43;;;;;;;439.75;330.58;;;205.60;1638.40;;;;;;4918416;29;20031;-73
2021/01/21 07:55:10;;;;;;;487.45;370.60;;;230.40;1638.40;;;;;;4918030;29;20052;-72
2021/01/21 07:57:36;;;;;;;473.90;358.58;;;230.50;1612.80;;;;;;4917883;29;20036;-72
2021/01/21 08:00:05;;;;;;;473.15;353.70;;;230.70;1587.20;;;;;;4917954;29;20368;-71
2021/01/21 08:02:42;;;;;;;442.73;327.73;;;230.80;1587.20;;;;;;4917894;29;20024;-72
2021/01/21 08:05:09;;;;;;;422.85;319.60;;;230.80;1612.80;;;;;;4917892;29;20028;-71
2021/01/21 08:07:49;;;;;;;428.52;313.85;;;230.60;1612.80;;;;;;4917853;29;20051;-72
2021/01/21 08:10:25;;;;;;;447.95;332.38;;;231.00;1587.20;;;;;;4917862;29;20088;-72
2021/01/21 08:12:59;;;;;;;468.02;352.60;;;256.10;1536.00;;;;;;4917602;29;20128;-72
2021/01/21 08:15:26;;;;;;;485.10;368.92;;;256.50;1510.40;;;;;;4917626;29;20087;-72
2021/01/21 08:17:53;;;;;;;471.08;355.67;;;256.20;1510.40;;;;;;4917502;29;20060;-71
2021/01/21 08:20:21;;;;;;;514.22;387.75;;;256.70;1484.80;;;;;;4917610;29;20075;-72
2021/01/21 08:22:52;;;;;;;509.65;390.88;;;281.60;1484.80;;;;;;4917952;29;20055;-72
2021/01/21 08:25:18;;;;;;;502.83;381.67;;;256.90;1459.20;;;;;;4917828;29;20036;-72
2021/01/21 08:27:49;;;;;;;509.70;395.05;;;256.80;1459.20;;;;;;4917468;29;20106;-72
2021/01/21 08:30:16;;;;;;;469.47;349.77;;;281.60;1510.40;;;;;;4917480;29;20020;-72
2021/01/21 08:32:44;;;;;;;505.55;382.70;;;281.60;1484.80;;;;;;4917361;29;20082;-72
2021/01/21 08:35:14;;;;;;;446.40;329.58;;;281.60;1484.80;;;;;;4917359;29;20028;-72
2021/01/21 08:37:40;;;;;;;460.45;338.50;;;281.80;1459.20;;;;;;4917610;29;20036;-72
2021/01/21 08:40:08;;;;;;;458.65;338.85;;;282.00;1459.20;;;;;;4917411;29;20052;-71
2021/01/21 08:42:35;;;;;;;423.63;315.88;;;282.50;1433.60;;;;;;4917336;29;20392;-71
2021/01/21 08:45:01;;;;;;;396.20;295.98;;;282.30;1433.60;;;;;;4917702;29;20083;-71
2021/01/21 08:47:42;;;;;;;381.77;280.27;;;282.50;1433.60;;;;;;4917112;29;20076;-72
2021/01/21 08:50:08;;;;;;;396.92;284.98;;;282.50;1408.00;;;;;;4917157;29;20048;-72
2021/01/21 08:52:34;;;;;;;359.60;268.17;;;307.20;1408.00;;;;;;4915868;29;20025;-71
2021/01/21 08:55:00;;;;;;;377.88;277.00;;;307.60;1382.40;;;;;;4917049;29;20153;-71
2021/01/21 08:57:25;;;;;;;346.92;261.17;;;307.60;1408.00;;;;;;4917031;29;20081;-71
2021/01/21 08:59:51;;;;;;;350.80;251.45;;;307.80;1382.40;;;;;;4917021;29;20028;-71
2021/01/21 09:02:41;;;;;;;359.10;259.73;;;332.90;1382.40;;;;;;4916044;29;20037;-72
2021/01/21 09:05:07;;;;;;;365.30;267.85;;;333.20;1356.80;;;;;;4931342;29;20558;-71
2021/01/21 09:07:33;;;;;;;377.08;280.48;;;333.50;1305.60;;;;;;4917019;29;20039;-72
2021/01/21 09:10:09;;;;;;;362.80;269.35;;;333.70;1305.60;;;;;;4916843;29;20416;-70
2021/01/21 09:12:35;;;;;;;369.17;269.65;;;333.60;1331.20;;;;;;4916949;29;20063;-71
2021/01/21 09:15:02;;;;;;;387.80;293.77;;;358.90;1254.40;;;;;;4916818;29;20020;-71
2021/01/21 09:17:28;;;;;;;400.23;309.10;;;384.20;1203.20;;;;;;4916903;29;20036;-73
2021/01/21 09:19:54;;;;;;;397.70;310.10;;;410.40;1126.40;;;;;;4916844;29;20107;-72
2021/01/21 09:22:22;;;;;;;387.27;309.33;;;487.10;896.00;;;;;;4916941;29;20111;-72
2021/01/21 09:25:00;;;;;;;401.15;326.80;;;537.90;819.20;;;;;;4916987;29;20035;-71
2021/01/21 09:27:27;;;;;;;384.80;310.60;;;614.40;716.80;;;;;;4916704;29;20047;-72
2021/01/21 09:30:07;;;;;;;352.35;290.80;;;615.00;665.60;;;;;;4917059;29;20375;-72
2021/01/21 09:32:40;;;;;;;293.65;249.32;;;666.00;588.80;;;;;;4916783;29;20028;-72
2021/01/21 09:35:13;;;;;;;350.45;293.65;;;691.70;537.60;;;;;;4917158;29;20024;-72
2021/01/21 09:37:44;;;;;;;316.98;273.08;;;589.50;716.80;;;;;;4916792;29;20039;-72
2021/01/21 09:40:14;;;;;;;320.15;276.83;;;589.70;716.80;;;;;;4916766;29;20539;-72
2021/01/21 09:42:40;;;;;;;316.67;275.45;;;666.10;588.80;;;;;;4916715;29;20040;-72
2021/01/21 09:45:07;;;;;;;307.27;266.33;;;691.80;537.60;;;;;;4917109;29;20071;-73
2021/01/21 09:47:33;;;;;;;276.88;246.38;;;743.20;512.00;;;;;;4916553;29;20043;-72
2021/01/21 09:49:59;;;;;;;293.20;254.98;;;743.10;512.00;;;;;;4916807;29;20073;-73
2021/01/21 09:52:25;;;;;;;267.17;236.30;;;768.70;460.80;;;;;;4916530;29;20040;-72
2021/01/21 09:54:51;;;;;;;232.65;205.77;;;794.20;435.20;;;;;;4916264;29;20052;-72
2021/01/21 09:57:17;;;;;;;190.38;166.68;;;794.30;435.20;;;;;;4916448;29;20111;-72
2021/01/21 09:59:43;;;;;;;160.90;138.00;;;742.80;512.00;;;;;;4916505;29;20028;-72
2021/01/21 10:02:08;;;;;;;144.13;123.10;;;768.40;460.80;;;;;;4916483;29;20024;-73
2021/01/21 10:04:40;;;;;;;128.80;109.15;;;820.10;384.00;;;;;;4916156;29;20028;-73
2021/01/21 10:07:06;;;;;;;129.00;114.60;;;844.80;384.00;;;;;;4916729;29;20070;-73
2021/01/21 10:09:33;;;;;;;85.88;74.97;;;819.30;384.00;;;;;;4916569;29;20032;-72
2021/01/21 10:11:59;;;;;;;32.35;26.23;;;819.60;358.40;;;;;;4916905;29;20499;-73
2021/01/21 10:14:25;;;;;;;37.67;27.13;;;819.90;332.80;;;;;;4919957;29;20024;-73
2021/01/21 10:16:50;;;;;;;30.10;26.95;;;819.30;384.00;;;;;;4919691;29;20039;-72
2021/01/21 10:19:16;;;;;;;18.80;16.88;;;820.10;332.80;;;;;;4919674;29;20032;-72
2021/01/21 10:21:42;;;;;;;13.95;12.65;;;768.10;435.20;;;;;;4920106;29;20391;-73
2021/01/21 10:24:08;;;;;;;10.65;9.65;;;794.20;384.00;;;;;;4919922;29;20056;-74
2021/01/21 10:26:34;;;;;;;18.02;15.20;;;819.60;358.40;;;;;;4920003;29;20039;-74
2021/01/21 10:28:59;;;;;;;17.75;16.08;;;844.90;358.40;;;;;;4919738;29;20039;-73
2021/01/21 10:31:25;;;;;;;21.33;19.13;;;870.50;307.20;;;;;;4919745;29;20060;-73
2021/01/21 10:33:51;;;;;;;19.10;17.00;;;845.00;358.40;;;;;;4919999;29;20056;-72
2021/01/21 10:36:17;;;;;;;31.20;22.35;;;845.00;358.40;;;;;;4919325;29;20475;-71
2021/01/21 10:38:43;;;;;;;17.90;16.00;;;819.80;358.40;;;;;;4919387;29;20032;-72
2021/01/21 10:41:09;;;;;;;28.92;23.88;;;820.10;358.40;;;;;;4918068;29;20043;-71
2021/01/21 10:43:35;;;;;;;38.53;25.95;;;794.30;409.60;;;;;;4919416;29;20071;-72
2021/01/21 10:46:01;;;;;;;28.75;22.08;;;819.30;358.40;;;;;;4919366;29;20028;-72
2021/01/21 10:48:27;;;;;;;18.88;14.15;;;820.10;332.80;;;;;;4919361;29;20036;-72
2021/01/21 10:50:53;;;;;;;15.20;13.68;;;845.40;332.80;;;;;;4919040;29;20375;-72
2021/01/21 10:53:19;;;;;;;29.00;25.27;;;845.30;332.80;;;;;;4917973;29;20083;-72
2021/01/21 10:55:45;;;;;;;12.40;11.13;;;870.50;307.20;;;;;;4918871;29;20056;-72
2021/01/21 10:58:13;;;;;;;11.95;9.13;;;844.90;358.40;;;;;;4919073;29;20088;-72
2021/01/21 11:00:40;;;;;;;12.52;11.23;;;820.10;332.80;;;;;;4919346;29;20079;-71
2021/01/21 11:03:06;;;;;;;16.10;14.32;;;819.80;358.40;;;;;;4919298;29;20032;-71
2021/01/21 11:05:31;;;;;;;19.50;17.40;;;794.10;384.00;;;;;;4918837;29;20099;-71
2021/01/21 11:07:57;;;;;;;24.23;21.65;;;794.30;384.00;;;;;;4919036;29;20505;-71
2021/01/21 11:10:23;;;;;;;23.15;20.27;;;819.60;358.40;;;;;;4918986;29;20040;-71
2021/01/21 11:12:48;;;;;;;14.00;9.85;;;819.80;332.80;;;;;;4918899;29;20028;-71
2021/01/21 11:15:19;;;;;;;9.05;7.28;;;794.50;358.40;;;;;;4918504;29;20150;-71
2021/01/21 11:17:45;;;;;;;15.38;11.27;;;768.40;409.60;;;;;;4918722;29;20032;-71
2021/01/21 11:20:13;;;;;;;14.73;11.50;;;717.70;460.80;;;;;;4918643;29;20028;-71
2021/01/21 11:22:39;;;;;;;12.95;9.23;;;717.10;486.40;;;;;;4918026;29;20111;-71
2021/01/21 11:25:07;;;;;;;20.77;15.38;;;691.40;512.00;;;;;;4918463;29;20032;-72
2021/01/21 11:27:34;;;;;;;14.05;11.10;;;666.50;512.00;;;;;;4918847;29;20052;-72
2021/01/21 11:30:00;;;;;;;10.30;8.15;;;666.00;537.60;;;;;;4918596;29;20062;-71
2021/01/21 11:32:26;;;;;;;13.73;8.20;;;665.70;537.60;;;;;;4918384;29;20024;-71
2021/01/21 11:34:51;;;;;;;6.28;5.18;;;640.60;512.00;;;;;;4918205;29;20039;-71
2021/01/21 11:37:17;;;;;;;14.30;9.10;;;640.80;512.00;;;;;;4918328;29;20032;-70
2021/01/21 11:39:43;;;;;;;12.90;9.50;;;640.40;537.60;;;;;;4918586;29;20032;-72
2021/01/21 11:42:09;;;;;;;8.30;5.88;;;640.40;537.60;;;;;;4918403;29;20045;-71
2021/01/21 11:44:34;;;;;;;12.32;7.82;;;640.30;537.60;;;;;;4918114;29;20032;-71
2021/01/21 11:47:00;;;;;;;9.05;6.15;;;640.40;537.60;;;;;;4918058;29;20028;-71
2021/01/21 11:49:26;;;;;;;17.40;8.55;;;640.50;537.60;;;;;;4918027;29;20063;-71
2021/01/21 11:51:51;;;;;;;21.77;12.43;;;640.40;563.20;;;;;;4918071;29;20032;-71
2021/01/21 11:54:17;;;;;;;19.42;12.50;;;640.10;563.20;;;;;;4918067;29;20035;-71
2021/01/21 11:56:43;;;;;;;12.80;8.95;;;640.40;563.20;;;;;;4918276;29;20060;-71
2021/01/21 11:59:08;;;;;;;12.07;8.15;;;640.10;537.60;;;;;;4918035;29;20068;-71